Time;durP1;ratioP1;P1;durP2;ratioP2;P2;SDS_P1;SDS_P2;PMS_P1;PMS_P2;Temp;Humidity;BMP_temperature;BMP_pressure;BME280_temperature;BME280_humidity;BME280_pressure;Samples;Min_cycle;Max_cycle;Signal;HPM_P1;HPM_P2
2022/04/30 00:01:28;;;;;;;15.53;7.07;;;;;;;14.47;45.21;101099.97;5369711;32;33881;-92
2022/04/30 00:04:35;;;;;;;13.87;6.90;;;;;;;15.30;43.22;101086.44;5405942;32;36060;-94
2022/04/30 00:07:41;;;;;;;14.87;7.73;;;;;;;14.72;44.25;101099.72;5408786;32;33737;-92
2022/04/30 00:10:46;;;;;;;14.37;7.57;;;;;;;14.75;44.41;101110.16;5380646;32;44780;-91
2022/04/30 00:13:51;;;;;;;15.13;7.93;;;;;;;14.34;45.75;101107.53;5337420;32;33702;-93
2022/04/30 00:16:56;;;;;;;16.67;8.33;;;;;;;13.91;48.64;101114.66;5339509;32;34107;-95
2022/04/30 00:20:06;;;;;;;16.27;8.23;;;;;;;13.77;49.78;101102.00;5359949;32;34210;-95
2022/04/30 00:23:19;;;;;;;12.03;7.40;;;;;;;14.86;46.53;101105.25;5377632;32;43831;-93
2022/04/30 00:26:22;;;;;;;13.27;7.40;;;;;;;14.11;47.49;101082.09;5407872;32;34619;-93
2022/04/30 00:29:31;;;;;;;13.33;7.80;;;;;;;13.96;48.40;101096.81;5373680;32;34947;-93
2022/04/30 00:32:34;;;;;;;14.57;7.70;;;;;;;13.46;50.63;101101.50;5370492;32;33976;-91
2022/04/30 00:35:43;;;;;;;15.87;7.40;;;;;;;14.05;48.86;101093.78;5388293;32;45068;-93
2022/04/30 00:38:48;;;;;;;12.17;6.97;;;;;;;13.60;49.48;101091.28;5354883;32;35118;-92
2022/04/30 00:41:55;;;;;;;14.33;7.47;;;;;;;13.62;49.61;101120.25;5383919;32;34269;-92
2022/04/30 00:45:02;;;;;;;11.20;6.90;;;;;;;13.13;49.82;101122.13;5377724;32;34306;-95
2022/04/30 00:48:07;;;;;;;13.13;7.20;;;;;;;13.88;47.89;101120.06;5382088;32;34225;-94
2022/04/30 00:51:12;;;;;;;11.80;6.67;;;;;;;13.86;48.04;101119.25;5409044;32;35124;-92
2022/04/30 00:54:22;;;;;;;10.87;6.73;;;;;;;13.33;48.81;101113.47;5383514;32;34942;-92
2022/04/30 00:57:32;;;;;;;11.77;6.70;;;;;;;13.96;47.34;101115.31;5386124;32;33562;-95
2022/04/30 01:00:40;;;;;;;11.37;6.63;;;;;;;13.06;49.40;101113.56;5384138;32;34318;-90
2022/04/30 01:03:45;;;;;;;11.17;5.90;;;;;;;13.58;48.40;101118.66;5375451;32;42979;-92
2022/04/30 01:07:10;;;;;;;11.63;6.33;;;;;;;14.48;46.32;101110.47;5369055;32;37606;-92
2022/04/30 01:10:17;;;;;;;12.57;6.73;;;;;;;14.48;46.18;101109.59;5342524;32;43465;-91
2022/04/30 01:13:24;;;;;;;13.60;6.43;;;;;;;14.29;47.20;101105.06;5369106;32;34872;-92
2022/04/30 01:16:36;;;;;;;11.73;6.30;;;;;;;13.52;49.22;101118.00;5348420;32;33147;-94
2022/04/30 01:19:43;;;;;;;15.17;9.00;;;;;;;13.25;50.66;101119.03;5379857;32;33622;-94
2022/04/30 01:23:04;;;;;;;10.87;6.27;;;;;;;13.93;48.43;101107.53;5362430;32;42955;-92
2022/04/30 01:26:10;;;;;;;12.20;6.35;;;;;;;14.26;47.19;101101.72;5376581;32;34062;-92
2022/04/30 01:29:17;;;;;;;12.10;6.50;;;;;;;13.67;48.52;101107.72;5400223;32;33165;-93
2022/04/30 01:39:26;;;;;;;10.43;6.23;;;;;;;13.37;48.89;101091.31;5402964;32;35414;-93
2022/04/30 01:42:40;;;;;;;12.73;6.70;;;;;;;13.18;49.27;101105.19;5372934;32;34190;-94
2022/04/30 01:45:45;;;;;;;15.70;6.60;;;;;;;13.16;50.09;101106.19;5399830;32;43080;-91
2022/04/30 01:48:49;;;;;;;11.10;6.53;;;;;;;12.54;51.34;101096.19;5372331;32;33942;-93
2022/04/30 01:52:07;;;;;;;13.27;6.67;;;;;;;13.51;48.88;101087.19;5398743;32;34038;-93
2022/04/30 01:55:13;;;;;;;12.03;6.67;;;;;;;13.36;49.71;101092.25;5384624;32;45047;-93
2022/04/30 01:58:20;;;;;;;13.40;6.50;;;;;;;12.99;50.11;101086.56;5361886;32;33469;-92
2022/04/30 02:01:27;;;;;;;13.00;6.53;;;;;;;13.24;49.39;101086.50;5383971;32;34434;-92
2022/04/30 02:04:35;;;;;;;13.07;6.83;;;;;;;12.61;51.38;101081.84;5370429;32;33006;-90
2022/04/30 02:07:45;;;;;;;11.93;6.40;;;;;;;13.61;49.27;101081.56;5389365;32;45574;-91
2022/04/30 02:10:51;;;;;;;11.00;6.47;;;;;;;13.57;48.88;101072.03;5405694;32;34977;-93
2022/04/30 02:13:57;;;;;;;9.83;5.77;;;;;;;13.16;49.93;101072.72;5395228;32;35066;-92
2022/04/30 02:17:03;;;;;;;12.30;6.47;;;;;;;13.08;50.33;101077.44;5407627;32;34117;-91
2022/04/30 02:20:22;;;;;;;13.17;6.50;;;;;;;12.88;51.62;101075.56;5396748;32;43703;-94
2022/04/30 02:23:31;;;;;;;13.00;6.63;;;;;;;13.36;49.19;101076.41;5357548;32;32933;-92
2022/04/30 02:26:38;;;;;;;13.97;7.20;;;;;;;12.72;51.41;101069.12;5356342;32;35024;-94
2022/04/30 02:29:43;;;;;;;15.40;7.03;;;;;;;12.45;52.65;101071.88;5356857;32;44414;-93
2022/04/30 02:32:55;;;;;;;12.30;7.10;;;;;;;12.71;50.95;101062.16;5377191;32;34430;-92
2022/04/30 02:36:00;;;;;;;13.13;7.07;;;;;;;11.89;53.83;101069.41;5344390;32;36274;-93
2022/04/30 02:39:08;;;;;;;14.00;6.47;;;;;;;11.92;54.23;101071.09;5366174;32;35023;-91
2022/04/30 02:42:13;;;;;;;13.93;7.07;;;;;;;13.06;50.88;101066.06;5358210;32;44358;-93
2022/04/30 02:45:20;;;;;;;12.23;7.27;;;;;;;12.11;53.04;101071.34;5376474;32;33553;-90
2022/04/30 02:48:24;;;;;;;15.80;7.10;;;;;;;13.20;49.68;101062.91;5381734;32;35478;-92
2022/04/30 02:51:28;;;;;;;14.93;7.37;;;;;;;11.97;53.93;101065.66;5372615;32;33764;-93
2022/04/30 02:54:34;;;;;;;14.73;7.27;;;;;;;11.86;53.93;101063.41;5376464;32;33618;-91
2022/04/30 03:01:08;;;;;;;10.43;6.30;;;;;;;13.26;50.28;101047.69;5393841;32;34140;-93
2022/04/30 03:04:13;;;;;;;14.00;6.50;;;;;;;11.86;53.97;101055.50;5420539;32;44813;-94
2022/04/30 03:07:22;;;;;;;11.00;6.23;;;;;;;12.02;53.04;101024.22;5362252;32;32867;-95
2022/04/30 03:10:26;;;;;;;12.50;6.57;;;;;;;12.05;52.88;101051.34;5383192;32;35205;-94
2022/04/30 03:13:40;;;;;;;11.30;6.50;;;;;;;12.32;51.38;101052.12;5368699;32;34220;-91
2022/04/30 03:23:41;;;;;;;12.85;6.68;;;;;;;12.04;52.15;101046.09;5358871;32;33751;-90
2022/04/30 03:26:46;;;;;;;15.17;6.43;;;;;;;11.65;53.36;101052.62;5360961;32;44186;-93
2022/04/30 03:29:52;;;;;;;11.47;6.40;;;;;;;11.78;53.86;101053.06;5366869;32;33620;-94
2022/04/30 03:32:58;;;;;;;11.73;5.93;;;;;;;12.23;52.32;101049.81;5376379;32;33310;-92
2022/04/30 03:36:04;;;;;;;12.70;6.07;;;;;;;12.53;51.10;101058.41;5391767;32;34651;-93
2022/04/30 03:39:10;;;;;;;11.97;6.17;;;;;;;11.91;53.79;101057.09;5392487;32;35034;-94
2022/04/30 03:42:14;;;;;;;11.60;6.40;;;;;;;11.27;55.11;101067.03;5372988;32;44524;-94
2022/04/30 03:45:25;;;;;;;10.77;5.90;;;;;;;12.18;53.21;101068.44;5349519;32;35022;-95
2022/04/30 03:48:32;;;;;;;10.17;5.93;;;;;;;12.00;53.98;101061.16;5370575;32;32867;-91
2022/04/30 03:51:38;;;;;;;12.20;6.10;;;;;;;11.65;53.83;101064.94;5387428;32;34934;-93
2022/04/30 03:54:49;;;;;;;12.17;6.20;;;;;;;12.12;53.64;101062.53;5344874;32;42942;-94
2022/04/30 03:57:56;;;;;;;11.43;6.63;;;;;;;12.71;51.30;101051.59;5371627;32;36306;-92
2022/04/30 04:01:01;;;;;;;15.00;6.70;;;;;;;11.68;54.82;101062.22;5395101;32;33919;-93
2022/04/30 04:04:10;;;;;;;13.13;6.47;;;;;;;12.29;52.70;101060.13;5389481;32;34501;-94
2022/04/30 04:07:18;;;;;;;10.77;5.90;;;;;;;11.32;55.29;101067.72;5383258;32;42809;-95
2022/04/30 04:10:25;;;;;;;9.40;5.73;;;;;;;10.81;57.33;101050.00;5362579;32;33996;-91
2022/04/30 04:20:22;;;;;;;10.87;5.83;;;;;;;12.15;54.15;101067.66;5397261;32;44676;-92
2022/04/30 04:25:58;;;;;;;13.77;6.05;;;;;;;11.52;55.61;101071.50;5395259;32;37136;-93
2022/04/30 04:27:01;;;;;;;11.83;6.27;;;;;;;12.24;54.10;101066.50;5385486;32;32944;-96
2022/04/30 04:30:06;;;;;;;11.07;6.10;;;;;;;11.95;54.73;101076.25;5391157;32;34652;-92
2022/04/30 04:33:12;;;;;;;15.47;6.33;;;;;;;12.51;52.25;101056.75;5353639;32;44435;-93
2022/04/30 04:36:16;;;;;;;12.70;6.50;;;;;;;12.89;52.57;101072.00;5378356;32;34994;-93
2022/04/30 04:39:27;;;;;;;9.60;5.97;;;;;;;12.37;53.46;101070.44;5370230;32;34476;-94
2022/04/30 04:42:35;;;;;;;18.73;7.63;;;;;;;13.31;51.35;101073.94;5358774;32;34162;-91
2022/04/30 04:45:40;;;;;;;11.00;5.90;;;;;;;13.35;50.45;101072.03;5378375;32;34624;-93
2022/04/30 04:48:45;;;;;;;10.67;6.03;;;;;;;13.83;49.92;101071.81;5330139;32;44328;-95
2022/04/30 04:51:50;;;;;;;12.73;6.10;;;;;;;14.64;46.43;101065.69;5389220;32;37490;-93
2022/04/30 04:54:59;;;;;;;12.67;6.83;;;;;;;13.80;49.11;101075.47;5383148;32;33642;-91
2022/04/30 04:58:05;;;;;;;12.87;6.30;;;;;;;14.90;46.96;101067.16;5389205;32;34308;-93
2022/04/30 05:01:13;;;;;;;13.57;6.80;;;;;;;14.61;47.06;101074.59;5399191;32;33975;-91
2022/04/30 05:04:21;;;;;;;11.03;6.30;;;;;;;15.50;44.91;101066.94;5388969;32;33197;-92
2022/04/30 05:07:25;;;;;;;11.45;6.03;;;;;;;16.40;42.73;101070.38;5394822;32;34644;-92
2022/04/30 05:10:33;;;;;;;11.70;6.72;;;;;;;16.85;40.86;101072.38;5382242;32;35591;-92
2022/04/30 05:13:40;;;;;;;9.88;6.07;;;;;;;15.68;43.49;101069.59;5387506;32;35724;-91
2022/04/30 05:16:47;;;;;;;13.13;6.12;;;;;;;16.83;40.55;101061.00;5369458;32;43962;-94
2022/04/30 05:19:50;;;;;;;11.63;6.18;;;;;;;16.85;40.20;101067.09;5373167;32;34467;-94
2022/04/30 05:23:05;;;;;;;12.80;6.03;;;;;;;18.01;38.13;101065.81;5378671;32;34606;-93
2022/04/30 05:26:12;;;;;;;11.18;6.30;;;;;;;17.44;38.14;101075.31;5387510;32;33426;-92
2022/04/30 05:29:16;;;;;;;12.37;5.82;;;;;;;17.57;39.09;101081.66;5377493;32;42779;-93
2022/04/30 05:32:24;;;;;;;8.45;5.57;;;;;;;17.22;39.88;101073.03;5370039;32;34084;-92
2022/04/30 05:35:30;;;;;;;16.25;6.25;;;;;;;18.52;37.10;101070.75;5407100;32;34865;-93
2022/04/30 05:38:43;;;;;;;23.42;9.68;;;;;;;18.17;36.68;101083.53;5365818;32;33512;-93
2022/04/30 05:42:10;;;;;;;10.68;6.78;;;;;;;17.96;37.76;101078.50;5379050;32;33581;-95
2022/04/30 05:45:25;;;;;;;14.82;8.35;;;;;;;18.62;36.04;101074.56;5396250;32;42971;-96
2022/04/30 05:48:32;;;;;;;11.93;6.25;;;;;;;18.78;35.47;101070.00;5416150;32;34235;-92
2022/04/30 05:51:44;;;;;;;13.77;6.55;;;;;;;18.32;36.98;101071.97;5404381;32;33861;-95
2022/04/30 05:54:47;;;;;;;12.13;6.62;;;;;;;19.33;34.66;101079.84;5412718;32;35954;-92
2022/04/30 05:57:52;;;;;;;18.00;7.28;;;;;;;19.15;34.93;101081.00;5376380;32;33447;-91
2022/04/30 06:00:56;;;;;;;10.68;6.07;;;;;;;20.18;32.62;101067.09;5391070;32;33812;-91
2022/04/30 06:04:05;;;;;;;12.27;6.55;;;;;;;19.32;33.27;101061.25;5356450;32;35324;-91
2022/04/30 06:07:10;;;;;;;13.15;6.30;;;;;;;20.40;31.46;101067.31;5367003;32;34230;-92
2022/04/30 06:10:15;;;;;;;10.35;6.03;;;;;;;19.38;33.49;101067.03;5352790;32;43461;-92
2022/04/30 06:13:19;;;;;;;10.70;6.32;;;;;;;19.65;31.51;101074.25;5356221;32;34477;-93
2022/04/30 06:16:23;;;;;;;10.70;6.03;;;;;;;19.25;32.52;101076.78;5365817;32;34921;-91
2022/04/30 06:19:28;;;;;;;15.18;7.40;;;;;;;18.84;33.35;101080.28;5361878;32;34479;-92
2022/04/30 06:22:36;;;;;;;11.90;6.15;;;;;;;20.42;31.01;101069.91;5385468;32;34896;-91
2022/04/30 06:25:43;;;;;;;14.13;6.93;;;;;;;18.58;34.13;101073.03;5380816;32;43608;-90
2022/04/30 06:28:49;;;;;;;12.65;6.85;;;;;;;19.24;33.59;101075.09;5376965;32;34418;-93
2022/04/30 06:32:00;;;;;;;13.55;6.80;;;;;;;20.87;30.74;101060.50;5391760;32;34141;-92
2022/04/30 06:35:08;;;;;;;11.35;6.32;;;;;;;21.94;29.08;101068.66;5377627;32;34073;-92
2022/04/30 06:38:25;;;;;;;10.35;6.50;;;;;;;21.04;30.27;101065.47;5399875;32;34506;-91
2022/04/30 06:41:32;;;;;;;9.32;6.03;;;;;;;21.99;29.30;101069.16;5398062;32;35274;-92
2022/04/30 06:44:38;;;;;;;14.02;6.32;;;;;;;22.83;27.00;101046.53;5377401;32;34194;-93
2022/04/30 06:47:45;;;;;;;13.25;6.47;;;;;;;21.34;29.89;101072.25;5370751;32;44284;-93
2022/04/30 06:50:49;;;;;;;10.88;6.30;;;;;;;22.36;28.25;101056.50;5374162;32;33711;-93
2022/04/30 06:57:30;;;;;;;11.90;6.15;;;;;;;23.50;26.34;101061.66;5353351;32;34699;-91
2022/04/30 07:04:05;;;;;;;15.10;6.43;;;;;;;23.54;26.44;101055.06;5381754;32;35315;-91
2022/04/30 07:07:11;;;;;;;9.10;6.03;;;;;;;22.97;27.66;101059.69;5379912;32;36131;-91
2022/04/30 07:10:18;;;;;;;11.35;6.35;;;;;;;23.12;27.00;101048.72;5373212;32;43978;-92
2022/04/30 07:13:24;;;;;;;10.05;5.90;;;;;;;22.98;27.46;101047.16;5388646;32;33868;-91
2022/04/30 07:16:30;;;;;;;10.60;6.65;;;;;;;23.52;26.41;101054.34;5345058;32;35767;-91
2022/04/30 07:19:40;;;;;;;10.93;6.30;;;;;;;23.04;27.30;101045.81;5369680;32;35086;-93
2022/04/30 07:22:45;;;;;;;12.45;6.62;;;;;;;23.01;27.73;101054.97;5374030;32;42676;-92
2022/04/30 07:25:53;;;;;;;10.73;5.75;;;;;;;24.70;25.43;101038.94;5209913;32;5437880;-94
2022/04/30 07:29:05;;;;;;;10.55;6.03;;;;;;;25.79;23.83;101038.91;5365632;32;34222;-95
2022/04/30 07:32:11;;;;;;;12.18;6.50;;;;;;;26.87;21.91;101030.41;5349594;32;44477;-94
2022/04/30 07:35:19;;;;;;;12.52;5.68;;;;;;;24.74;25.24;101030.47;5335537;32;33713;-91
2022/04/30 07:38:24;;;;;;;10.73;5.70;;;;;;;22.97;27.46;101032.91;5359134;32;33831;-92
2022/04/30 07:41:31;;;;;;;10.20;5.65;;;;;;;23.64;26.71;101039.97;5360918;32;34228;-93
2022/04/30 07:44:38;;;;;;;9.30;5.70;;;;;;;26.42;23.07;101028.47;5333512;32;33188;-93
2022/04/30 07:47:43;;;;;;;10.40;6.45;;;;;;;25.93;23.77;101025.00;5335882;32;45198;-92
2022/04/30 07:50:46;;;;;;;12.27;5.50;;;;;;;24.07;26.35;101038.13;5336668;32;34115;-93
2022/04/30 07:53:53;;;;;;;8.93;5.07;;;;;;;26.78;22.45;101031.28;5338767;32;33741;-94
2022/04/30 07:57:00;;;;;;;9.85;4.62;;;;;;;24.01;26.03;101036.81;5331642;32;35308;-94
2022/04/30 08:00:06;;;;;;;9.98;5.00;;;;;;;23.48;25.74;101029.59;5353272;32;36199;-93
2022/04/30 08:03:10;;;;;;;7.15;4.30;;;;;;;24.14;25.30;101033.94;5338972;32;34494;-91
2022/04/30 08:06:17;;;;;;;5.80;3.95;;;;;;;24.39;24.09;101030.88;5326005;32;44822;-92
2022/04/30 08:09:46;;;;;;;7.55;4.47;;;;;;;24.66;23.59;101019.53;5314524;32;35114;-96
2022/04/30 08:12:59;;;;;;;10.00;4.60;;;;;;;26.19;21.77;101006.37;5336064;32;34544;-93
2022/04/30 08:16:05;;;;;;;12.50;4.50;;;;;;;26.93;21.03;101020.88;5339833;32;34009;-92
2022/04/30 08:19:15;;;;;;;9.93;4.57;;;;;;;26.41;21.87;101016.00;5363325;32;34656;-95
2022/04/30 08:22:34;;;;;;;11.02;3.90;;;;;;;26.02;22.35;101020.63;5340258;32;34260;-93
2022/04/30 08:25:41;;;;;;;10.00;4.50;;;;;;;26.62;20.83;101017.63;5341243;32;34208;-94
2022/04/30 08:28:53;;;;;;;7.57;4.62;;;;;;;26.71;20.75;101014.03;5366282;32;45433;-91
2022/04/30 08:31:59;;;;;;;7.53;4.07;;;;;;;25.37;22.95;101020.34;5382090;32;33394;-92
2022/04/30 08:35:07;;;;;;;7.40;4.55;;;;;;;25.64;22.31;101025.00;5365825;32;36246;-91
2022/04/30 08:38:33;;;;;;;7.15;4.18;;;;;;;26.68;21.12;101019.72;5385492;32;34475;-96
2022/04/30 08:41:45;;;;;;;10.57;4.07;;;;;;;25.28;22.63;101026.53;5393276;32;33925;-93
2022/04/30 08:45:31;;;;;;;7.75;3.87;;;;;;;26.73;21.28;101020.13;5384120;32;33711;-96
2022/04/30 08:48:36;;;;;;;7.40;3.87;;;;;;;28.74;18.24;101003.31;5402295;32;34137;-94
2022/04/30 08:51:39;;;;;;;6.87;3.90;;;;;;;26.57;20.23;101009.13;5396436;27;32523;-78
2022/04/30 08:54:42;;;;;;;7.50;3.70;;;;;;;27.78;18.51;101014.19;5394971;32;34603;-77
2022/04/30 08:57:45;;;;;;;8.73;3.62;;;;;;;27.14;19.69;101007.16;5373618;32;34688;-79
2022/04/30 09:00:48;;;;;;;10.77;4.18;;;;;;;26.42;20.22;101006.91;5382596;32;34339;-78
2022/04/30 09:03:51;;;;;;;6.43;3.78;;;;;;;26.45;20.09;101003.91;5412292;27;35608;-96
2022/04/30 09:06:56;;;;;;;11.20;3.80;;;;;;;28.26;18.43;100988.50;5351745;32;33517;-94
2022/04/30 09:10:01;;;;;;;10.35;4.25;;;;;;;28.39;18.72;100993.50;5387059;32;34870;-95
2022/04/30 09:13:07;;;;;;;5.35;3.47;;;;;;;27.91;19.00;100994.88;5386982;32;34472;-95
2022/04/30 09:16:20;;;;;;;11.20;3.70;;;;;;;30.85;15.28;100986.22;5377322;32;33594;-94
2022/04/30 09:19:24;;;;;;;6.05;3.67;;;;;;;29.98;15.98;100981.72;5375143;32;34824;-94
2022/04/30 09:22:34;;;;;;;6.65;3.70;;;;;;;27.82;17.74;100964.25;5377825;32;35476;-96
2022/04/30 09:25:37;;;;;;;6.97;4.25;;;;;;;27.62;18.47;100977.06;5393756;32;34709;-94
2022/04/30 09:28:45;;;;;;;6.35;4.03;;;;;;;26.59;19.90;100970.22;5379194;32;37109;-94
2022/04/30 09:31:51;;;;;;;6.35;3.78;;;;;;;28.57;18.05;100965.38;5384759;32;34069;-95
2022/04/30 09:38:16;;;;;;;7.80;3.78;;;;;;;29.26;16.63;100960.69;5381832;32;43445;-93
2022/04/30 09:41:26;;;;;;;9.80;4.20;;;;;;;27.69;18.26;100958.41;5377046;32;34267;-94
2022/04/30 09:44:29;;;;;;;7.75;3.95;;;;;;;30.17;15.94;100938.84;5374899;32;34687;-93
2022/04/30 09:47:33;;;;;;;9.45;3.95;;;;;;;26.48;19.18;100939.94;5402272;32;34475;-93
2022/04/30 09:54:03;;;;;;;6.55;3.90;;;;;;;29.19;16.11;100943.44;5401522;32;34173;-94
2022/04/30 09:57:09;;;;;;;6.57;3.50;;;;;;;28.39;16.95;100937.59;5369451;32;34871;-94
2022/04/30 10:00:13;;;;;;;6.47;3.47;;;;;;;29.09;16.48;100929.22;5388155;32;44106;-94
2022/04/30 10:03:17;;;;;;;6.03;3.40;;;;;;;29.83;15.49;100927.38;5391791;32;34023;-94
2022/04/30 10:06:20;;;;;;;6.85;3.70;;;;;;;26.32;17.88;100936.00;5375794;32;34373;-93
2022/04/30 10:09:52;;;;;;;5.82;3.55;;;;;;;25.94;18.58;100936.97;5410054;32;32717;-93
2022/04/30 10:13:07;;;;;;;12.93;4.28;;;;;;;26.42;17.48;100926.06;5385077;32;34415;-94
2022/04/30 10:16:19;;;;;;;6.78;3.67;;;;;;;26.04;18.79;100923.50;5372729;32;44606;-95
2022/04/30 10:19:23;;;;;;;6.50;3.40;;;;;;;26.11;17.64;100895.81;5397093;32;34706;-95
2022/04/30 10:22:26;;;;;;;6.87;3.80;;;;;;;26.43;17.72;100899.97;5386043;32;33695;-92
2022/04/30 10:25:46;;;;;;;7.07;4.05;;;;;;;26.12;18.11;100913.69;5391620;32;36333;-93
2022/04/30 10:28:59;;;;;;;7.40;4.05;;;;;;;27.65;17.24;100900.31;5375513;32;44532;-94
2022/04/30 10:32:03;;;;;;;8.18;4.00;;;;;;;25.70;19.44;100898.88;5379160;32;34854;-94
2022/04/30 10:35:07;;;;;;;6.05;3.78;;;;;;;25.09;19.53;100909.00;5393949;32;34722;-92
2022/04/30 10:38:10;;;;;;;8.27;4.22;;;;;;;26.38;18.32;100897.69;5375523;32;34800;-94
2022/04/30 10:41:13;;;;;;;6.47;4.00;;;;;;;23.99;21.24;100893.81;5390770;32;44918;-93
2022/04/30 10:44:28;;;;;;;6.40;4.40;;;;;;;24.40;20.50;100890.19;5390911;32;33597;-94
2022/04/30 10:47:31;;;;;;;8.13;4.22;;;;;;;24.03;19.97;100895.25;5373402;32;36835;-95
2022/04/30 10:50:34;;;;;;;7.45;3.50;;;;;;;24.82;19.74;100900.75;5397588;32;34145;-92
2022/04/30 10:53:42;;;;;;;6.43;4.00;;;;;;;25.01;19.66;100889.16;5383243;32;34947;-95
2022/04/30 10:56:46;;;;;;;8.63;3.80;;;;;;;23.98;20.75;100884.91;5381172;32;44761;-93
2022/04/30 10:59:58;;;;;;;6.40;3.92;;;;;;;23.82;20.91;100886.38;5363575;32;35062;-94
2022/04/30 11:03:10;;;;;;;8.15;4.30;;;;;;;23.02;21.93;100869.00;5380801;32;34407;-93
2022/04/30 11:06:25;;;;;;;7.78;4.00;;;;;;;24.05;20.40;100879.88;5373887;32;43211;-94
2022/04/30 11:09:28;;;;;;;7.05;3.72;;;;;;;25.13;18.67;100888.06;5377118;32;36556;-94
2022/04/30 11:12:34;;;;;;;5.72;3.53;;;;;;;25.26;18.19;100885.94;5376134;32;34911;-93
2022/04/30 11:15:42;;;;;;;6.93;3.78;;;;;;;27.50;16.25;100867.63;5364680;32;34332;-95
2022/04/30 11:18:49;;;;;;;5.62;3.25;;;;;;;29.88;14.48;100852.69;5350448;32;34590;-93
2022/04/30 11:21:54;;;;;;;5.62;3.50;;;;;;;30.01;14.54;100837.72;5341278;32;34817;-92
2022/04/30 11:24:57;;;;;;;6.47;3.65;;;;;;;31.18;13.51;100856.56;5331756;32;34193;-94
2022/04/30 11:28:05;;;;;;;5.87;3.25;;;;;;;30.07;14.44;100845.97;5350385;32;33920;-93
2022/04/30 11:31:10;;;;;;;7.03;3.33;;;;;;;33.24;12.23;100840.22;5319629;32;32955;-93
2022/04/30 11:34:17;;;;;;;6.12;3.83;;;;;;;33.55;11.70;100835.22;5361107;32;33818;-93
2022/04/30 11:37:20;;;;;;;5.47;3.17;;;;;;;30.32;13.65;100846.75;5349380;32;34363;-93
2022/04/30 11:40:25;;;;;;;5.90;3.35;;;;;;;31.80;12.95;100845.44;5340332;32;34797;-92
2022/04/30 11:43:28;;;;;;;6.93;3.20;;;;;;;32.52;11.96;100830.28;5345426;32;36253;-92
2022/04/30 11:46:32;;;;;;;8.05;3.87;;;;;;;32.01;12.64;100825.69;5374898;32;34936;-95
2022/04/30 11:49:36;;;;;;;5.00;3.15;;;;;;;30.65;13.59;100833.00;5386793;32;38263;-96
2022/04/30 11:52:42;;;;;;;6.45;3.30;;;;;;;31.03;13.11;100833.94;5366560;32;44011;-94
2022/04/30 11:55:45;;;;;;;6.37;3.37;;;;;;;32.07;12.18;100822.22;5406332;32;34322;-94
2022/04/30 11:58:48;;;;;;;4.30;3.00;;;;;;;34.21;10.62;100812.97;5380530;32;34015;-92
2022/04/30 12:01:52;;;;;;;5.65;3.30;;;;;;;34.11;10.64;100812.50;5368656;32;34008;-96
2022/04/30 12:05:04;;;;;;;5.53;2.87;;;;;;;32.33;11.98;100812.69;5384890;32;35235;-93
2022/04/30 12:08:12;;;;;;;4.82;3.30;;;;;;;31.63;12.83;100805.91;5384843;32;45826;-95
2022/04/30 12:11:16;;;;;;;5.82;3.50;;;;;;;30.14;14.14;100810.91;5401600;32;33005;-94
2022/04/30 12:14:20;;;;;;;4.72;3.03;;;;;;;28.26;16.09;100791.22;5358957;32;34030;-93
2022/04/30 12:17:33;;;;;;;4.40;3.22;;;;;;;28.94;15.80;100807.28;5369917;32;34491;-91
2022/04/30 12:27:26;;;;;;;6.85;3.45;;;;;;;26.45;17.97;100806.31;5379731;32;34235;-94
2022/04/30 12:30:29;;;;;;;6.28;3.97;;;;;;;27.33;17.13;100804.59;5363052;32;34699;-92
2022/04/30 12:33:45;;;;;;;7.05;3.53;;;;;;;26.92;17.34;100780.00;5364881;32;36503;-94
2022/04/30 12:36:52;;;;;;;7.15;3.70;;;;;;;27.18;17.39;100792.69;5382229;32;44214;-96
2022/04/30 12:39:57;;;;;;;6.12;3.95;;;;;;;25.44;19.02;100804.47;5371787;32;35062;-95
2022/04/30 12:43:03;;;;;;;4.15;3.10;;;;;;;26.94;17.85;100796.84;5397085;32;34415;-96
2022/04/30 12:46:18;;;;;;;5.47;3.50;;;;;;;27.29;17.20;100780.78;5371176;32;34860;-93
2022/04/30 12:49:22;;;;;;;6.95;3.15;;;;;;;27.59;16.67;100795.66;5386985;32;33527;-95
2022/04/30 12:52:26;;;;;;;6.20;3.33;;;;;;;26.23;18.22;100788.72;5381630;32;34186;-96
2022/04/30 12:55:32;;;;;;;6.03;3.40;;;;;;;25.11;19.81;100793.22;5362199;32;36012;-93
2022/04/30 12:58:35;;;;;;;6.28;3.28;;;;;;;25.38;19.28;100785.25;5370686;32;35642;-95
2022/04/30 13:01:40;;;;;;;5.97;3.55;;;;;;;25.91;18.51;100781.09;5379585;32;35388;-95
2022/04/30 13:04:43;;;;;;;5.25;3.17;;;;;;;26.16;18.17;100774.16;5403859;32;43214;-92
2022/04/30 13:07:46;;;;;;;7.50;3.40;;;;;;;25.99;18.27;100775.81;5382116;32;35015;-96
2022/04/30 13:14:11;;;;;;;6.93;3.72;;;;;;;24.53;20.07;100774.41;5380612;32;45066;-95
2022/04/30 13:17:15;;;;;;;8.80;3.67;;;;;;;23.66;21.22;100774.16;5359598;32;32801;-93
2022/04/30 13:20:18;;;;;;;6.22;3.78;;;;;;;24.01;20.51;100773.72;5372724;32;34913;-94
2022/04/30 13:23:22;;;;;;;8.15;3.50;;;;;;;24.09;20.72;100771.22;5370524;32;34353;-91
2022/04/30 13:26:25;;;;;;;5.80;3.37;;;;;;;23.83;20.91;100773.53;5369011;32;34720;-94
2022/04/30 13:29:28;;;;;;;9.05;3.85;;;;;;;23.04;22.00;100759.81;5375590;32;34518;-94
2022/04/30 13:32:31;;;;;;;10.27;3.60;;;;;;;22.84;22.08;100745.41;5372856;32;34109;-94
2022/04/30 13:35:35;;;;;;;6.18;3.12;;;;;;;23.03;21.82;100751.91;5396946;32;35281;-94
2022/04/30 13:38:38;;;;;;;7.70;3.20;;;;;;;23.38;21.25;100740.81;5372575;32;33298;-94
2022/04/30 13:41:46;;;;;;;5.85;3.72;;;;;;;22.63;22.29;100745.41;5386154;32;43365;-93
2022/04/30 13:44:49;;;;;;;6.85;3.30;;;;;;;23.27;21.62;100749.81;5384136;32;34615;-93
2022/04/30 13:47:52;;;;;;;6.85;3.33;;;;;;;23.83;20.50;100721.66;5378847;32;34623;-95
2022/04/30 13:50:56;;;;;;;7.12;3.40;;;;;;;24.37;20.39;100740.03;5387329;32;35460;-93
2022/04/30 13:54:00;;;;;;;6.32;3.22;;;;;;;24.31;20.84;100730.66;5384323;32;36576;-93
2022/04/30 13:57:03;;;;;;;7.07;3.53;;;;;;;23.95;21.05;100729.47;5364817;32;33676;-94
2022/04/30 14:00:07;;;;;;;6.97;3.37;;;;;;;23.94;20.89;100716.19;5370315;32;36232;-92
2022/04/30 14:03:10;;;;;;;6.20;3.22;;;;;;;23.24;21.81;100734.81;5365719;32;44369;-93
2022/04/30 14:06:13;;;;;;;7.32;3.45;;;;;;;23.22;21.64;100728.75;5372646;32;33653;-94
2022/04/30 14:09:16;;;;;;;8.90;3.83;;;;;;;23.22;21.65;100723.38;5370969;32;34572;-94
2022/04/30 14:12:18;;;;;;;5.85;3.20;;;;;;;22.80;22.07;100727.03;5383497;32;34186;-95
2022/04/30 14:15:21;;;;;;;;;;;;;;;23.99;20.19;100720.16;5353672;32;35189;-95
2022/04/30 14:18:24;;;;;;;;;;;;;;;24.45;19.62;100721.37;5392115;32;34273;-94
2022/04/30 14:21:28;;;;;;;7.37;3.30;;;;;;;24.70;19.45;100714.56;5360578;32;34676;-94
2022/04/30 14:24:37;;;;;;;4.68;3.00;;;;;;;24.95;19.09;100709.59;5370690;32;33536;-95
2022/04/30 14:27:41;;;;;;;5.32;2.95;;;;;;;24.73;18.69;100711.63;5383923;32;34825;-94
2022/04/30 14:30:44;;;;;;;5.95;3.20;;;;;;;23.83;20.33;100705.56;5377880;32;35305;-94
2022/04/30 14:33:47;;;;;;;6.15;3.00;;;;;;;24.57;19.91;100714.03;5392225;32;34309;-95
2022/04/30 14:36:53;;;;;;;5.72;3.30;;;;;;;24.58;19.70;100689.69;5379923;32;32630;-92
2022/04/30 14:40:01;;;;;;;5.90;3.70;;;;;;;23.62;20.98;100709.19;5387221;32;34448;-96
2022/04/30 14:43:06;;;;;;;5.55;3.15;;;;;;;24.72;19.95;100707.22;5361524;32;34067;-94
2022/04/30 14:46:09;;;;;;;8.73;3.15;;;;;;;23.47;21.36;100711.37;5386989;32;35103;-93
2022/04/30 14:49:13;;;;;;;6.05;3.30;;;;;;;23.51;21.52;100707.44;5366079;32;43965;-95
2022/04/30 14:52:15;;;;;;;6.95;3.70;;;;;;;22.74;22.47;100708.81;5376695;32;34812;-93
2022/04/30 14:55:19;;;;;;;5.87;3.20;;;;;;;23.09;22.27;100705.81;5399382;32;34310;-93
2022/04/30 14:58:22;;;;;;;5.12;3.05;;;;;;;23.02;22.25;100692.09;5371910;32;32784;-94
2022/04/30 15:01:25;;;;;;;5.20;3.00;;;;;;;24.05;20.69;100706.19;5367373;32;36273;-92
2022/04/30 15:04:32;;;;;;;7.12;3.47;;;;;;;23.00;21.93;100699.44;5381241;32;35192;-95
2022/04/30 15:07:37;;;;;;;5.00;3.00;;;;;;;22.70;22.36;100700.19;5377160;32;33523;-93
2022/04/30 15:10:41;;;;;;;7.97;3.25;;;;;;;23.19;21.60;100701.37;5390586;32;43189;-95
2022/04/30 15:13:46;;;;;;;6.18;3.42;;;;;;;22.78;22.10;100676.25;5357499;32;34125;-93